sensor_id;sensor_type;location;lat;lon;timestamp;P1;durP1;ratioP1;P2;durP2;ratioP2
26620;SDS011;14253;44.840;10.444;2022-09-09T00:04:15;21.10;;;13.82;;
26620;SDS011;14253;44.840;10.444;2022-09-09T00:15:26;20.13;;;15.57;;
26620;SDS011;14253;44.840;10.444;2022-09-09T00:18:03;19.88;;;16.52;;
26620;SDS011;14253;44.840;10.444;2022-09-09T00:20:58;20.85;;;15.88;;
26620;SDS011;14253;44.840;10.444;2022-09-09T00:23:37;19.63;;;16.00;;
26620;SDS011;14253;44.840;10.444;2022-09-09T00:26:13;22.75;;;15.15;;
26620;SDS011;14253;44.840;10.444;2022-09-09T00:28:52;21.33;;;15.20;;
26620;SDS011;14253;44.840;10.444;2022-09-09T00:31:35;19.15;;;15.05;;
26620;SDS011;14253;44.840;10.444;2022-09-09T00:36:39;20.33;;;14.70;;
26620;SDS011;14253;44.840;10.444;2022-09-09T00:39:11;23.80;;;15.15;;
26620;SDS011;14253;44.840;10.444;2022-09-09T00:41:56;19.17;;;14.90;;
26620;SDS011;14253;44.840;10.444;2022-09-09T00:44:49;16.80;;;15.00;;
26620;SDS011;14253;44.840;10.444;2022-09-09T00:54:09;20.95;;;14.93;;
26620;SDS011;14253;44.840;10.444;2022-09-09T00:56:14;22.63;;;16.27;;
26620;SDS011;14253;44.840;10.444;2022-09-09T00:58:51;24.67;;;18.13;;
26620;SDS011;14253;44.840;10.444;2022-09-09T01:01:32;18.13;;;15.32;;
26620;SDS011;14253;44.840;10.444;2022-09-09T01:03:58;18.10;;;16.02;;
26620;SDS011;14253;44.840;10.444;2022-09-09T01:17:13;21.15;;;16.10;;
26620;SDS011;14253;44.840;10.444;2022-09-09T01:28:30;19.83;;;15.40;;
26620;SDS011;14253;44.840;10.444;2022-09-09T01:31:03;20.98;;;15.05;;
26620;SDS011;14253;44.840;10.444;2022-09-09T01:33:37;23.88;;;16.15;;
26620;SDS011;14253;44.840;10.444;2022-09-09T01:36:08;22.48;;;16.10;;
26620;SDS011;14253;44.840;10.444;2022-09-09T01:38:45;22.08;;;16.90;;
26620;SDS011;14253;44.840;10.444;2022-09-09T01:41:11;23.63;;;15.27;;
26620;SDS011;14253;44.840;10.444;2022-09-09T01:43:47;21.25;;;15.50;;
26620;SDS011;14253;44.840;10.444;2022-09-09T01:46:13;18.38;;;15.07;;
26620;SDS011;14253;44.840;10.444;2022-09-09T01:48:41;20.90;;;16.80;;
26620;SDS011;14253;44.840;10.444;2022-09-09T01:51:09;26.20;;;16.92;;
26620;SDS011;14253;44.840;10.444;2022-09-09T01:53:36;24.27;;;17.52;;
26620;SDS011;14253;44.840;10.444;2022-09-09T01:56:17;22.13;;;16.38;;
26620;SDS011;14253;44.840;10.444;2022-09-09T02:01:43;19.40;;;15.48;;
26620;SDS011;14253;44.840;10.444;2022-09-09T02:06:55;24.60;;;18.27;;
26620;SDS011;14253;44.840;10.444;2022-09-09T02:09:26;21.60;;;18.80;;
26620;SDS011;14253;44.840;10.444;2022-09-09T02:11:57;29.15;;;20.42;;
26620;SDS011;14253;44.840;10.444;2022-09-09T02:14:40;21.92;;;19.27;;
26620;SDS011;14253;44.840;10.444;2022-09-09T02:17:13;26.02;;;18.80;;
26620;SDS011;14253;44.840;10.444;2022-09-09T02:20:05;22.17;;;19.85;;
26620;SDS011;14253;44.840;10.444;2022-09-09T02:22:55;22.23;;;18.35;;
26620;SDS011;14253;44.840;10.444;2022-09-09T02:25:24;25.55;;;18.33;;
26620;SDS011;14253;44.840;10.444;2022-09-09T02:27:57;23.45;;;18.55;;
26620;SDS011;14253;44.840;10.444;2022-09-09T02:30:24;21.50;;;19.15;;
26620;SDS011;14253;44.840;10.444;2022-09-09T02:32:56;21.38;;;18.05;;
26620;SDS011;14253;44.840;10.444;2022-09-09T02:35:45;23.98;;;17.13;;
26620;SDS011;14253;44.840;10.444;2022-09-09T02:38:16;24.88;;;18.70;;
26620;SDS011;14253;44.840;10.444;2022-09-09T02:40:55;24.95;;;19.20;;
26620;SDS011;14253;44.840;10.444;2022-09-09T02:43:21;22.60;;;17.60;;
26620;SDS011;14253;44.840;10.444;2022-09-09T02:46:03;19.35;;;17.45;;
26620;SDS011;14253;44.840;10.444;2022-09-09T02:48:41;22.83;;;18.42;;
26620;SDS011;14253;44.840;10.444;2022-09-09T02:51:23;30.88;;;19.13;;
26620;SDS011;14253;44.840;10.444;2022-09-09T02:56:38;24.80;;;19.08;;
26620;SDS011;14253;44.840;10.444;2022-09-09T02:59:10;25.63;;;19.42;;
26620;SDS011;14253;44.840;10.444;2022-09-09T03:01:37;22.52;;;18.67;;
26620;SDS011;14253;44.840;10.444;2022-09-09T03:04:05;21.20;;;17.90;;
26620;SDS011;14253;44.840;10.444;2022-09-09T03:06:32;26.95;;;19.60;;
26620;SDS011;14253;44.840;10.444;2022-09-09T03:09:06;25.83;;;20.63;;
26620;SDS011;14253;44.840;10.444;2022-09-09T03:11:36;25.73;;;18.85;;
26620;SDS011;14253;44.840;10.444;2022-09-09T03:14:04;23.23;;;19.02;;
26620;SDS011;14253;44.840;10.444;2022-09-09T03:16:31;25.35;;;19.30;;
26620;SDS011;14253;44.840;10.444;2022-09-09T03:19:00;26.33;;;20.83;;
26620;SDS011;14253;44.840;10.444;2022-09-09T03:21:27;25.52;;;19.67;;
26620;SDS011;14253;44.840;10.444;2022-09-09T03:23:53;27.15;;;19.08;;
26620;SDS011;14253;44.840;10.444;2022-09-09T03:26:20;22.00;;;18.17;;
26620;SDS011;14253;44.840;10.444;2022-09-09T03:28:46;23.88;;;19.42;;
26620;SDS011;14253;44.840;10.444;2022-09-09T03:31:16;22.52;;;19.25;;
26620;SDS011;14253;44.840;10.444;2022-09-09T03:33:43;17.88;;;15.63;;
26620;SDS011;14253;44.840;10.444;2022-09-09T03:36:12;19.63;;;17.52;;
26620;SDS011;14253;44.840;10.444;2022-09-09T03:38:39;20.13;;;15.98;;
26620;SDS011;14253;44.840;10.444;2022-09-09T03:41:06;20.08;;;17.70;;
26620;SDS011;14253;44.840;10.444;2022-09-09T03:43:33;20.75;;;17.42;;
26620;SDS011;14253;44.840;10.444;2022-09-09T03:46:00;20.83;;;17.50;;
26620;SDS011;14253;44.840;10.444;2022-09-09T03:48:27;21.52;;;18.92;;
26620;SDS011;14253;44.840;10.444;2022-09-09T03:50:54;19.33;;;17.35;;
26620;SDS011;14253;44.840;10.444;2022-09-09T03:53:23;24.40;;;19.92;;
26620;SDS011;14253;44.840;10.444;2022-09-09T03:55:51;21.90;;;18.15;;
26620;SDS011;14253;44.840;10.444;2022-09-09T03:58:22;23.08;;;18.73;;
26620;SDS011;14253;44.840;10.444;2022-09-09T04:00:56;27.33;;;19.17;;
26620;SDS011;14253;44.840;10.444;2022-09-09T04:03:25;23.73;;;18.95;;
26620;SDS011;14253;44.840;10.444;2022-09-09T04:05:53;21.70;;;16.65;;
26620;SDS011;14253;44.840;10.444;2022-09-09T04:08:20;22.52;;;18.23;;
26620;SDS011;14253;44.840;10.444;2022-09-09T04:10:48;21.02;;;18.27;;
26620;SDS011;14253;44.840;10.444;2022-09-09T04:13:16;20.38;;;15.82;;
26620;SDS011;14253;44.840;10.444;2022-09-09T04:15:44;20.17;;;17.42;;
26620;SDS011;14253;44.840;10.444;2022-09-09T04:18:16;23.20;;;19.15;;
26620;SDS011;14253;44.840;10.444;2022-09-09T04:20:42;21.10;;;17.27;;
26620;SDS011;14253;44.840;10.444;2022-09-09T04:23:10;18.90;;;15.25;;
26620;SDS011;14253;44.840;10.444;2022-09-09T04:25:37;17.75;;;15.52;;
26620;SDS011;14253;44.840;10.444;2022-09-09T04:28:03;14.70;;;13.20;;
26620;SDS011;14253;44.840;10.444;2022-09-09T04:30:29;16.17;;;12.95;;
26620;SDS011;14253;44.840;10.444;2022-09-09T04:32:56;13.70;;;12.32;;
26620;SDS011;14253;44.840;10.444;2022-09-09T04:35:22;15.07;;;13.48;;
26620;SDS011;14253;44.840;10.444;2022-09-09T04:37:48;15.23;;;13.63;;
26620;SDS011;14253;44.840;10.444;2022-09-09T04:40:15;14.55;;;13.02;;
26620;SDS011;14253;44.840;10.444;2022-09-09T04:42:41;14.25;;;12.85;;
26620;SDS011;14253;44.840;10.444;2022-09-09T04:45:11;18.25;;;14.07;;
26620;SDS011;14253;44.840;10.444;2022-09-09T04:47:40;14.25;;;12.82;;
26620;SDS011;14253;44.840;10.444;2022-09-09T04:50:06;14.65;;;12.75;;
26620;SDS011;14253;44.840;10.444;2022-09-09T04:52:36;14.43;;;12.70;;
26620;SDS011;14253;44.840;10.444;2022-09-09T04:55:03;15.57;;;14.05;;
26620;SDS011;14253;44.840;10.444;2022-09-09T04:57:29;50.95;;;15.80;;
26620;SDS011;14253;44.840;10.444;2022-09-09T04:59:57;33.90;;;14.57;;
26620;SDS011;14253;44.840;10.444;2022-09-09T05:02:24;18.73;;;13.82;;
26620;SDS011;14253;44.840;10.444;2022-09-09T05:04:51;17.80;;;12.93;;
26620;SDS011;14253;44.840;10.444;2022-09-09T05:07:17;18.00;;;12.52;;
26620;SDS011;14253;44.840;10.444;2022-09-09T05:09:44;15.15;;;13.10;;
26620;SDS011;14253;44.840;10.444;2022-09-09T05:12:11;18.83;;;13.10;;
26620;SDS011;14253;44.840;10.444;2022-09-09T05:14:42;17.35;;;12.75;;
26620;SDS011;14253;44.840;10.444;2022-09-09T05:17:10;17.10;;;13.30;;
26620;SDS011;14253;44.840;10.444;2022-09-09T05:19:37;17.20;;;13.15;;
26620;SDS011;14253;44.840;10.444;2022-09-09T05:22:03;16.63;;;13.63;;
26620;SDS011;14253;44.840;10.444;2022-09-09T05:24:38;16.08;;;13.20;;
26620;SDS011;14253;44.840;10.444;2022-09-09T05:27:04;27.02;;;13.27;;
26620;SDS011;14253;44.840;10.444;2022-09-09T05:29:32;25.13;;;14.75;;
26620;SDS011;14253;44.840;10.444;2022-09-09T05:32:04;19.65;;;13.20;;
26620;SDS011;14253;44.840;10.444;2022-09-09T05:34:30;25.02;;;15.05;;
26620;SDS011;14253;44.840;10.444;2022-09-09T05:36:56;26.70;;;16.13;;
26620;SDS011;14253;44.840;10.444;2022-09-09T05:39:24;30.10;;;16.33;;
26620;SDS011;14253;44.840;10.444;2022-09-09T05:41:50;15.60;;;13.80;;
26620;SDS011;14253;44.840;10.444;2022-09-09T05:44:16;21.50;;;15.73;;
26620;SDS011;14253;44.840;10.444;2022-09-09T05:46:43;18.55;;;14.63;;
26620;SDS011;14253;44.840;10.444;2022-09-09T05:49:11;17.85;;;14.98;;
26620;SDS011;14253;44.840;10.444;2022-09-09T05:51:39;20.58;;;13.27;;
26620;SDS011;14253;44.840;10.444;2022-09-09T05:56:42;18.33;;;14.07;;
26620;SDS011;14253;44.840;10.444;2022-09-09T05:59:08;16.13;;;12.20;;
26620;SDS011;14253;44.840;10.444;2022-09-09T06:01:35;16.52;;;13.07;;
26620;SDS011;14253;44.840;10.444;2022-09-09T06:04:06;16.98;;;13.32;;
26620;SDS011;14253;44.840;10.444;2022-09-09T06:06:34;23.05;;;15.07;;
26620;SDS011;14253;44.840;10.444;2022-09-09T06:09:04;21.02;;;14.98;;
26620;SDS011;14253;44.840;10.444;2022-09-09T06:11:35;19.88;;;14.38;;
26620;SDS011;14253;44.840;10.444;2022-09-09T06:14:03;16.90;;;15.02;;
26620;SDS011;14253;44.840;10.444;2022-09-09T06:16:31;23.67;;;16.83;;
26620;SDS011;14253;44.840;10.444;2022-09-09T06:19:04;20.00;;;16.17;;
26620;SDS011;14253;44.840;10.444;2022-09-09T06:21:34;23.38;;;17.55;;
26620;SDS011;14253;44.840;10.444;2022-09-09T06:24:03;28.45;;;19.05;;
26620;SDS011;14253;44.840;10.444;2022-09-09T06:26:35;31.77;;;20.70;;
26620;SDS011;14253;44.840;10.444;2022-09-09T06:29:09;37.35;;;20.50;;
26620;SDS011;14253;44.840;10.444;2022-09-09T06:31:36;34.97;;;19.92;;
26620;SDS011;14253;44.840;10.444;2022-09-09T06:34:12;44.60;;;21.13;;
26620;SDS011;14253;44.840;10.444;2022-09-09T06:36:41;40.47;;;23.20;;
26620;SDS011;14253;44.840;10.444;2022-09-09T06:39:07;46.40;;;23.80;;
26620;SDS011;14253;44.840;10.444;2022-09-09T06:41:36;51.58;;;24.80;;
26620;SDS011;14253;44.840;10.444;2022-09-09T06:44:05;52.10;;;25.75;;
26620;SDS011;14253;44.840;10.444;2022-09-09T06:46:38;47.33;;;24.65;;
26620;SDS011;14253;44.840;10.444;2022-09-09T06:49:06;43.40;;;24.42;;
26620;SDS011;14253;44.840;10.444;2022-09-09T06:51:34;47.45;;;24.45;;
26620;SDS011;14253;44.840;10.444;2022-09-09T06:54:03;42.35;;;25.50;;
26620;SDS011;14253;44.840;10.444;2022-09-09T06:59:02;47.78;;;23.98;;
26620;SDS011;14253;44.840;10.444;2022-09-09T07:01:35;44.88;;;23.80;;
26620;SDS011;14253;44.840;10.444;2022-09-09T07:04:08;44.38;;;23.75;;
26620;SDS011;14253;44.840;10.444;2022-09-09T07:06:38;47.20;;;26.67;;
26620;SDS011;14253;44.840;10.444;2022-09-09T07:09:09;51.70;;;26.23;;
26620;SDS011;14253;44.840;10.444;2022-09-09T07:11:42;51.78;;;25.85;;
26620;SDS011;14253;44.840;10.444;2022-09-09T07:14:12;45.00;;;24.33;;
26620;SDS011;14253;44.840;10.444;2022-09-09T07:16:40;51.78;;;25.83;;
26620;SDS011;14253;44.840;10.444;2022-09-09T07:19:08;54.40;;;25.50;;
26620;SDS011;14253;44.840;10.444;2022-09-09T07:21:34;48.47;;;26.10;;
26620;SDS011;14253;44.840;10.444;2022-09-09T07:24:00;48.53;;;26.17;;
26620;SDS011;14253;44.840;10.444;2022-09-09T07:26:28;46.65;;;25.02;;
26620;SDS011;14253;44.840;10.444;2022-09-09T07:28:57;47.70;;;25.60;;
26620;SDS011;14253;44.840;10.444;2022-09-09T07:31:25;48.15;;;24.55;;
26620;SDS011;14253;44.840;10.444;2022-09-09T07:33:53;45.28;;;25.02;;
26620;SDS011;14253;44.840;10.444;2022-09-09T07:36:23;43.80;;;25.70;;
26620;SDS011;14253;44.840;10.444;2022-09-09T07:38:58;48.90;;;24.73;;
26620;SDS011;14253;44.840;10.444;2022-09-09T07:41:33;43.85;;;24.83;;
26620;SDS011;14253;44.840;10.444;2022-09-09T07:44:19;44.92;;;24.88;;
26620;SDS011;14253;44.840;10.444;2022-09-09T07:46:50;44.33;;;26.20;;
26620;SDS011;14253;44.840;10.444;2022-09-09T07:49:21;48.95;;;26.30;;
26620;SDS011;14253;44.840;10.444;2022-09-09T07:51:48;43.70;;;24.55;;
26620;SDS011;14253;44.840;10.444;2022-09-09T07:54:17;44.28;;;25.95;;
26620;SDS011;14253;44.840;10.444;2022-09-09T07:56:48;39.28;;;24.00;;
26620;SDS011;14253;44.840;10.444;2022-09-09T07:59:15;36.88;;;24.00;;
26620;SDS011;14253;44.840;10.444;2022-09-09T08:01:43;36.08;;;22.98;;
26620;SDS011;14253;44.840;10.444;2022-09-09T08:04:22;33.58;;;22.75;;
26620;SDS011;14253;44.840;10.444;2022-09-09T08:06:54;36.20;;;22.08;;
26620;SDS011;14253;44.840;10.444;2022-09-09T08:09:24;31.02;;;20.67;;
26620;SDS011;14253;44.840;10.444;2022-09-09T08:11:54;34.25;;;19.88;;
26620;SDS011;14253;44.840;10.444;2022-09-09T08:14:27;28.85;;;19.10;;
26620;SDS011;14253;44.840;10.444;2022-09-09T08:16:54;28.70;;;19.00;;
26620;SDS011;14253;44.840;10.444;2022-09-09T08:19:23;32.38;;;19.80;;
26620;SDS011;14253;44.840;10.444;2022-09-09T08:21:49;30.50;;;18.25;;
26620;SDS011;14253;44.840;10.444;2022-09-09T08:24:16;29.02;;;17.35;;
26620;SDS011;14253;44.840;10.444;2022-09-09T08:26:47;27.63;;;18.88;;
26620;SDS011;14253;44.840;10.444;2022-09-09T08:29:16;27.67;;;17.88;;
26620;SDS011;14253;44.840;10.444;2022-09-09T08:31:44;28.13;;;17.95;;
26620;SDS011;14253;44.840;10.444;2022-09-09T08:34:12;26.40;;;18.67;;
26620;SDS011;14253;44.840;10.444;2022-09-09T08:36:40;26.67;;;17.77;;
26620;SDS011;14253;44.840;10.444;2022-09-09T08:39:09;27.08;;;17.88;;
26620;SDS011;14253;44.840;10.444;2022-09-09T08:41:55;32.22;;;18.42;;
26620;SDS011;14253;44.840;10.444;2022-09-09T08:50:05;22.80;;;16.83;;
26620;SDS011;14253;44.840;10.444;2022-09-09T08:52:36;27.30;;;16.88;;
26620;SDS011;14253;44.840;10.444;2022-09-09T08:57:39;23.23;;;17.23;;
26620;SDS011;14253;44.840;10.444;2022-09-09T09:00:07;24.48;;;15.63;;
26620;SDS011;14253;44.840;10.444;2022-09-09T09:05:46;25.53;;;15.00;;
26620;SDS011;14253;44.840;10.444;2022-09-09T09:08:25;23.20;;;14.02;;
26620;SDS011;14253;44.840;10.444;2022-09-09T09:10:53;19.70;;;13.82;;
26620;SDS011;14253;44.840;10.444;2022-09-09T09:13:33;17.83;;;13.13;;
26620;SDS011;14253;44.840;10.444;2022-09-09T09:16:10;21.38;;;13.65;;
26620;SDS011;14253;44.840;10.444;2022-09-09T09:18:45;20.58;;;13.63;;
26620;SDS011;14253;44.840;10.444;2022-09-09T09:21:14;19.98;;;13.43;;
26620;SDS011;14253;44.840;10.444;2022-09-09T09:24:07;19.27;;;13.27;;
26620;SDS011;14253;44.840;10.444;2022-09-09T09:26:42;23.98;;;13.45;;
26620;SDS011;14253;44.840;10.444;2022-09-09T09:29:13;23.35;;;13.35;;
26620;SDS011;14253;44.840;10.444;2022-09-09T09:31:53;20.85;;;13.15;;
26620;SDS011;14253;44.840;10.444;2022-09-09T09:34:25;17.65;;;12.57;;
26620;SDS011;14253;44.840;10.444;2022-09-09T09:36:53;16.98;;;11.68;;
26620;SDS011;14253;44.840;10.444;2022-09-09T09:39:24;16.02;;;10.80;;
26620;SDS011;14253;44.840;10.444;2022-09-09T09:41:53;23.10;;;12.07;;
26620;SDS011;14253;44.840;10.444;2022-09-09T09:46:50;18.75;;;11.00;;
26620;SDS011;14253;44.840;10.444;2022-09-09T09:49:17;16.98;;;10.70;;
26620;SDS011;14253;44.840;10.444;2022-09-09T09:51:43;14.95;;;10.45;;
26620;SDS011;14253;44.840;10.444;2022-09-09T09:56:39;13.95;;;9.52;;
26620;SDS011;14253;44.840;10.444;2022-09-09T09:59:21;19.00;;;10.65;;
26620;SDS011;14253;44.840;10.444;2022-09-09T10:01:53;14.38;;;11.27;;
26620;SDS011;14253;44.840;10.444;2022-09-09T10:04:21;17.10;;;11.70;;
26620;SDS011;14253;44.840;10.444;2022-09-09T10:06:53;20.35;;;12.73;;
26620;SDS011;14253;44.840;10.444;2022-09-09T10:09:26;16.35;;;11.65;;
26620;SDS011;14253;44.840;10.444;2022-09-09T10:14:57;19.58;;;11.55;;
26620;SDS011;14253;44.840;10.444;2022-09-09T10:20:40;13.65;;;10.13;;
26620;SDS011;14253;44.840;10.444;2022-09-09T10:25:56;17.33;;;11.57;;
26620;SDS011;14253;44.840;10.444;2022-09-09T10:31:18;14.20;;;9.13;;
26620;SDS011;14253;44.840;10.444;2022-09-09T10:33:51;14.77;;;7.13;;
26620;SDS011;14253;44.840;10.444;2022-09-09T10:36:28;11.80;;;7.47;;
26620;SDS011;14253;44.840;10.444;2022-09-09T10:38:57;14.00;;;6.25;;
26620;SDS011;14253;44.840;10.444;2022-09-09T10:52:32;6.05;;;3.83;;
26620;SDS011;14253;44.840;10.444;2022-09-09T10:55:20;8.35;;;4.53;;
26620;SDS011;14253;44.840;10.444;2022-09-09T10:57:52;8.13;;;4.80;;
26620;SDS011;14253;44.840;10.444;2022-09-09T11:03:09;13.60;;;4.80;;
26620;SDS011;14253;44.840;10.444;2022-09-09T11:06:01;5.80;;;4.43;;
26620;SDS011;14253;44.840;10.444;2022-09-09T11:08:30;6.55;;;4.35;;
26620;SDS011;14253;44.840;10.444;2022-09-09T11:18:39;7.85;;;3.65;;
26620;SDS011;14253;44.840;10.444;2022-09-09T11:21:12;10.05;;;4.10;;
26620;SDS011;14253;44.840;10.444;2022-09-09T11:23:52;7.35;;;3.28;;
26620;SDS011;14253;44.840;10.444;2022-09-09T11:26:27;5.32;;;3.63;;
26620;SDS011;14253;44.840;10.444;2022-09-09T11:40:31;7.82;;;2.95;;
26620;SDS011;14253;44.840;10.444;2022-09-09T11:43:05;6.38;;;2.42;;
26620;SDS011;14253;44.840;10.444;2022-09-09T11:45:33;5.43;;;2.35;;
26620;SDS011;14253;44.840;10.444;2022-09-09T11:48:01;6.10;;;2.10;;
26620;SDS011;14253;44.840;10.444;2022-09-09T11:50:30;5.28;;;2.00;;
26620;SDS011;14253;44.840;10.444;2022-09-09T11:53:18;5.18;;;2.42;;
26620;SDS011;14253;44.840;10.444;2022-09-09T11:55:46;7.30;;;2.40;;
26620;SDS011;14253;44.840;10.444;2022-09-09T12:00:39;6.13;;;2.38;;
26620;SDS011;14253;44.840;10.444;2022-09-09T12:03:55;4.13;;;1.77;;
26620;SDS011;14253;44.840;10.444;2022-09-09T12:06:10;5.50;;;2.00;;
26620;SDS011;14253;44.840;10.444;2022-09-09T12:08:43;3.97;;;1.95;;
26620;SDS011;14253;44.840;10.444;2022-09-09T12:11:11;6.07;;;1.67;;
26620;SDS011;14253;44.840;10.444;2022-09-09T12:13:55;4.75;;;1.98;;
26620;SDS011;14253;44.840;10.444;2022-09-09T12:16:28;3.30;;;2.00;;
26620;SDS011;14253;44.840;10.444;2022-09-09T12:19:14;4.78;;;1.67;;
26620;SDS011;14253;44.840;10.444;2022-09-09T12:24:59;7.15;;;1.80;;
26620;SDS011;14253;44.840;10.444;2022-09-09T12:27:14;6.95;;;1.88;;
26620;SDS011;14253;44.840;10.444;2022-09-09T12:29:52;5.70;;;2.17;;
26620;SDS011;14253;44.840;10.444;2022-09-09T12:32:37;4.90;;;2.13;;
26620;SDS011;14253;44.840;10.444;2022-09-09T12:38:03;7.32;;;1.70;;
26620;SDS011;14253;44.840;10.444;2022-09-09T12:40:36;6.82;;;1.70;;
26620;SDS011;14253;44.840;10.444;2022-09-09T12:43:20;3.38;;;1.50;;
26620;SDS011;14253;44.840;10.444;2022-09-09T12:45:48;4.57;;;1.40;;
26620;SDS011;14253;44.840;10.444;2022-09-09T12:48:42;7.47;;;1.98;;
26620;SDS011;14253;44.840;10.444;2022-09-09T12:51:28;4.18;;;1.80;;
26620;SDS011;14253;44.840;10.444;2022-09-09T12:53:55;3.90;;;1.38;;
26620;SDS011;14253;44.840;10.444;2022-09-09T12:56:24;5.25;;;1.70;;
26620;SDS011;14253;44.840;10.444;2022-09-09T12:59:00;5.13;;;1.45;;
26620;SDS011;14253;44.840;10.444;2022-09-09T13:01:30;5.13;;;1.65;;
26620;SDS011;14253;44.840;10.444;2022-09-09T13:04:00;4.38;;;1.48;;
26620;SDS011;14253;44.840;10.444;2022-09-09T13:06:30;5.75;;;1.42;;
26620;SDS011;14253;44.840;10.444;2022-09-09T13:08:58;3.67;;;1.40;;
26620;SDS011;14253;44.840;10.444;2022-09-09T13:14:04;7.53;;;1.65;;
26620;SDS011;14253;44.840;10.444;2022-09-09T13:16:58;4.75;;;1.65;;
26620;SDS011;14253;44.840;10.444;2022-09-09T13:19:28;5.13;;;1.55;;
26620;SDS011;14253;44.840;10.444;2022-09-09T13:22:20;5.85;;;1.45;;
26620;SDS011;14253;44.840;10.444;2022-09-09T13:24:57;4.75;;;1.75;;
26620;SDS011;14253;44.840;10.444;2022-09-09T13:27:38;7.97;;;1.90;;
26620;SDS011;14253;44.840;10.444;2022-09-09T13:30:25;6.22;;;1.50;;
26620;SDS011;14253;44.840;10.444;2022-09-09T13:35:26;3.40;;;1.20;;
26620;SDS011;14253;44.840;10.444;2022-09-09T13:37:52;3.50;;;1.08;;
26620;SDS011;14253;44.840;10.444;2022-09-09T13:40:22;6.20;;;1.42;;
26620;SDS011;14253;44.840;10.444;2022-09-09T13:42:52;5.18;;;1.40;;
26620;SDS011;14253;44.840;10.444;2022-09-09T13:45:22;3.85;;;1.33;;
26620;SDS011;14253;44.840;10.444;2022-09-09T13:47:52;6.53;;;1.38;;
26620;SDS011;14253;44.840;10.444;2022-09-09T13:50:29;4.72;;;1.27;;
26620;SDS011;14253;44.840;10.444;2022-09-09T13:52:56;9.57;;;1.55;;
26620;SDS011;14253;44.840;10.444;2022-09-09T13:55:24;4.35;;;1.23;;
26620;SDS011;14253;44.840;10.444;2022-09-09T13:57:54;9.27;;;1.17;;
26620;SDS011;14253;44.840;10.444;2022-09-09T14:00:31;6.57;;;1.50;;
26620;SDS011;14253;44.840;10.444;2022-09-09T14:02:59;3.63;;;1.13;;
26620;SDS011;14253;44.840;10.444;2022-09-09T14:05:29;3.38;;;1.00;;
26620;SDS011;14253;44.840;10.444;2022-09-09T14:07:57;3.72;;;1.50;;
26620;SDS011;14253;44.840;10.444;2022-09-09T14:10:23;9.07;;;1.70;;
26620;SDS011;14253;44.840;10.444;2022-09-09T14:12:49;4.95;;;1.48;;
26620;SDS011;14253;44.840;10.444;2022-09-09T14:15:15;5.00;;;1.30;;
26620;SDS011;14253;44.840;10.444;2022-09-09T14:17:41;7.68;;;1.40;;
26620;SDS011;14253;44.840;10.444;2022-09-09T14:20:08;2.85;;;1.08;;
26620;SDS011;14253;44.840;10.444;2022-09-09T14:22:36;2.03;;;0.93;;
26620;SDS011;14253;44.840;10.444;2022-09-09T14:25:04;2.67;;;1.20;;
26620;SDS011;14253;44.840;10.444;2022-09-09T14:27:31;2.78;;;1.17;;
26620;SDS011;14253;44.840;10.444;2022-09-09T14:29:58;6.63;;;1.48;;
26620;SDS011;14253;44.840;10.444;2022-09-09T14:32:25;6.32;;;1.50;;
26620;SDS011;14253;44.840;10.444;2022-09-09T14:34:51;5.00;;;1.05;;
26620;SDS011;14253;44.840;10.444;2022-09-09T14:37:18;4.85;;;1.38;;
26620;SDS011;14253;44.840;10.444;2022-09-09T14:39:44;4.72;;;1.30;;
26620;SDS011;14253;44.840;10.444;2022-09-09T14:42:12;5.30;;;1.30;;
26620;SDS011;14253;44.840;10.444;2022-09-09T14:44:39;6.13;;;1.17;;
26620;SDS011;14253;44.840;10.444;2022-09-09T14:47:05;5.82;;;1.33;;
26620;SDS011;14253;44.840;10.444;2022-09-09T14:49:35;4.15;;;1.20;;
26620;SDS011;14253;44.840;10.444;2022-09-09T14:52:02;4.95;;;1.15;;
26620;SDS011;14253;44.840;10.444;2022-09-09T14:54:29;5.45;;;1.30;;
26620;SDS011;14253;44.840;10.444;2022-09-09T14:56:59;4.78;;;1.27;;
26620;SDS011;14253;44.840;10.444;2022-09-09T14:59:25;5.15;;;1.35;;
26620;SDS011;14253;44.840;10.444;2022-09-09T15:01:52;4.03;;;1.42;;
26620;SDS011;14253;44.840;10.444;2022-09-09T15:04:18;5.72;;;1.17;;
26620;SDS011;14253;44.840;10.444;2022-09-09T15:06:44;3.40;;;1.23;;
26620;SDS011;14253;44.840;10.444;2022-09-09T15:09:13;6.68;;;1.60;;
26620;SDS011;14253;44.840;10.444;2022-09-09T15:11:40;6.43;;;1.27;;
26620;SDS011;14253;44.840;10.444;2022-09-09T15:14:07;6.03;;;1.45;;
26620;SDS011;14253;44.840;10.444;2022-09-09T15:16:34;3.40;;;1.27;;
26620;SDS011;14253;44.840;10.444;2022-09-09T15:19:01;3.67;;;1.08;;
26620;SDS011;14253;44.840;10.444;2022-09-09T15:21:32;3.28;;;1.00;;
26620;SDS011;14253;44.840;10.444;2022-09-09T15:23:59;4.60;;;1.20;;
26620;SDS011;14253;44.840;10.444;2022-09-09T15:26:25;3.35;;;1.00;;
26620;SDS011;14253;44.840;10.444;2022-09-09T15:28:52;2.67;;;1.05;;
26620;SDS011;14253;44.840;10.444;2022-09-09T15:31:20;5.05;;;1.23;;
26620;SDS011;14253;44.840;10.444;2022-09-09T15:33:52;4.53;;;1.20;;
26620;SDS011;14253;44.840;10.444;2022-09-09T15:36:26;6.60;;;1.40;;
26620;SDS011;14253;44.840;10.444;2022-09-09T15:38:54;4.55;;;1.20;;
26620;SDS011;14253;44.840;10.444;2022-09-09T15:41:21;5.40;;;1.10;;
26620;SDS011;14253;44.840;10.444;2022-09-09T15:43:48;2.90;;;1.20;;
26620;SDS011;14253;44.840;10.444;2022-09-09T15:46:35;4.60;;;1.30;;
26620;SDS011;14253;44.840;10.444;2022-09-09T15:49:07;4.60;;;1.25;;
26620;SDS011;14253;44.840;10.444;2022-09-09T15:51:34;4.72;;;1.40;;
26620;SDS011;14253;44.840;10.444;2022-09-09T15:54:00;3.10;;;1.25;;
26620;SDS011;14253;44.840;10.444;2022-09-09T15:56:27;5.32;;;1.33;;
26620;SDS011;14253;44.840;10.444;2022-09-09T15:58:58;4.90;;;1.20;;
26620;SDS011;14253;44.840;10.444;2022-09-09T16:01:25;3.75;;;1.10;;
26620;SDS011;14253;44.840;10.444;2022-09-09T16:03:52;2.95;;;0.98;;
26620;SDS011;14253;44.840;10.444;2022-09-09T16:06:19;4.60;;;1.42;;
26620;SDS011;14253;44.840;10.444;2022-09-09T16:08:48;6.40;;;1.30;;
26620;SDS011;14253;44.840;10.444;2022-09-09T16:11:17;4.13;;;1.17;;
26620;SDS011;14253;44.840;10.444;2022-09-09T16:13:45;3.05;;;1.02;;
26620;SDS011;14253;44.840;10.444;2022-09-09T16:16:14;7.32;;;1.33;;
26620;SDS011;14253;44.840;10.444;2022-09-09T16:18:41;5.20;;;1.40;;
26620;SDS011;14253;44.840;10.444;2022-09-09T16:21:24;4.15;;;1.13;;
26620;SDS011;14253;44.840;10.444;2022-09-09T16:23:54;8.25;;;1.50;;
26620;SDS011;14253;44.840;10.444;2022-09-09T16:26:21;4.85;;;1.20;;
26620;SDS011;14253;44.840;10.444;2022-09-09T16:28:47;4.68;;;1.23;;
26620;SDS011;14253;44.840;10.444;2022-09-09T16:31:18;4.65;;;1.40;;
26620;SDS011;14253;44.840;10.444;2022-09-09T16:33:46;7.95;;;1.55;;
26620;SDS011;14253;44.840;10.444;2022-09-09T16:36:17;7.47;;;1.50;;
26620;SDS011;14253;44.840;10.444;2022-09-09T16:38:46;5.50;;;1.30;;
26620;SDS011;14253;44.840;10.444;2022-09-09T16:41:13;5.47;;;1.52;;
26620;SDS011;14253;44.840;10.444;2022-09-09T16:43:40;5.85;;;1.67;;
26620;SDS011;14253;44.840;10.444;2022-09-09T16:46:13;6.38;;;1.33;;
26620;SDS011;14253;44.840;10.444;2022-09-09T16:48:42;6.13;;;1.40;;